Time;durP1;ratioP1;P1;durP2;ratioP2;P2;SDS_P1;SDS_P2;PMS_P1;PMS_P2;Temp;Humidity;BMP_temperature;BMP_pressure;BME280_temperature;BME280_humidity;BME280_pressure;Samples;Min_cycle;Max_cycle;Signal;HPM_P1;HPM_P2
2023/08/08 00:01:22;;;;;;;3.60;1.60;;;;;;;21.81;58.73;98968.66;5031686;28;20029;-72
2023/08/08 00:03:47;;;;;;;2.28;1.63;;;;;;;21.75;59.20;98958.97;5029169;28;20033;-72
2023/08/08 00:06:13;;;;;;;2.63;1.85;;;;;;;21.76;59.60;98966.28;5026177;28;20038;-72
2023/08/08 00:08:39;;;;;;;4.55;1.90;;;;;;;21.68;59.64;98957.00;5027365;28;20026;-72
2023/08/08 00:11:04;;;;;;;2.67;1.73;;;;;;;21.72;59.91;98960.66;5030242;28;20091;-72
2023/08/08 00:13:30;;;;;;;2.45;1.77;;;;;;;21.76;59.79;98956.94;5031395;28;20075;-72
2023/08/08 00:15:55;;;;;;;3.30;1.83;;;;;;;21.68;60.13;98954.16;5028658;28;20394;-72
2023/08/08 00:18:20;;;;;;;2.75;2.08;;;;;;;21.70;60.18;98962.28;5026880;28;20069;-72
2023/08/08 00:20:46;;;;;;;4.93;1.63;;;;;;;21.66;60.53;98964.31;5019196;28;20409;-73
2023/08/08 00:23:12;;;;;;;3.13;1.45;;;;;;;21.64;60.63;98959.06;5029517;28;20041;-72
2023/08/08 00:25:37;;;;;;;2.95;1.65;;;;;;;21.69;60.96;98975.69;5030064;28;20088;-72
2023/08/08 00:28:03;;;;;;;3.65;1.63;;;;;;;21.69;60.94;98972.84;5031413;28;20029;-72
2023/08/08 00:30:29;;;;;;;2.45;1.30;;;;;;;21.53;61.19;98973.38;5029959;28;20021;-73
2023/08/08 00:32:54;;;;;;;1.40;1.05;;;;;;;21.32;61.56;98965.88;5029981;28;20511;-72
2023/08/08 00:35:20;;;;;;;1.63;1.17;;;;;;;21.38;61.45;98964.22;5031073;28;20040;-73
2023/08/08 00:37:45;;;;;;;1.80;1.17;;;;;;;21.29;61.68;98963.91;5029685;28;20029;-72
2023/08/08 00:40:10;;;;;;;1.85;1.10;;;;;;;21.20;62.00;98970.06;5030624;28;20072;-73
2023/08/08 00:42:36;;;;;;;1.75;1.35;;;;;;;21.29;61.79;98972.44;5031188;28;20025;-73
2023/08/08 00:45:03;;;;;;;1.08;0.98;;;;;;;21.29;61.33;98961.06;5030942;28;20022;-72
2023/08/08 00:47:33;;;;;;;3.63;1.00;;;;;;;20.98;61.96;98966.59;5031038;28;20604;-73
2023/08/08 00:50:00;;;;;;;1.98;1.15;;;;;;;20.88;62.07;98971.97;5030955;28;20029;-73
2023/08/08 00:52:26;;;;;;;2.00;0.90;;;;;;;20.81;61.82;98972.00;5029436;28;20029;-72
2023/08/08 00:54:53;;;;;;;2.65;0.70;;;;;;;20.84;61.47;98973.22;5029414;28;20031;-72
2023/08/08 00:57:21;;;;;;;0.98;0.80;;;;;;;20.75;61.56;98962.25;5019909;28;20041;-72
2023/08/08 00:59:47;;;;;;;2.47;0.88;;;;;;;20.63;61.46;98969.25;5031055;28;20021;-75
2023/08/08 01:02:12;;;;;;;3.10;0.95;;;;;;;20.62;61.75;98971.28;5030983;28;20087;-75
2023/08/08 01:04:39;;;;;;;3.78;0.70;;;;;;;20.57;61.72;98971.72;5030903;28;20029;-75
2023/08/08 01:07:47;;;;;;;1.13;0.60;;;;;;;20.42;62.61;98964.53;5028257;28;20087;-75
2023/08/08 01:10:17;;;;;;;2.45;1.35;;;;;;;20.33;63.21;98970.66;5020510;28;20056;-76
2023/08/08 01:12:46;;;;;;;1.00;0.70;;;;;;;20.40;63.69;98981.97;5030913;28;20107;-75
2023/08/08 01:15:13;;;;;;;1.38;0.80;;;;;;;20.34;64.17;98975.13;5030876;28;20040;-75
2023/08/08 01:17:41;;;;;;;1.33;0.70;;;;;;;20.28;64.33;98980.44;5017773;28;20026;-75
2023/08/08 01:20:08;;;;;;;1.95;0.88;;;;;;;20.26;64.46;98977.16;5012484;28;20026;-75
2023/08/08 01:22:48;;;;;;;2.35;0.60;;;;;;;20.26;64.56;98988.53;5030870;28;20029;-75
2023/08/08 01:25:13;;;;;;;1.20;0.82;;;;;;;20.15;64.76;98987.78;5029671;28;20488;-75
2023/08/08 01:27:39;;;;;;;1.58;0.90;;;;;;;20.23;64.80;98995.03;5041403;28;20033;-75
2023/08/08 01:30:07;;;;;;;3.20;0.90;;;;;;;20.17;65.51;98994.66;5028412;28;20033;-75
2023/08/08 01:32:32;;;;;;;2.75;1.00;;;;;;;20.22;65.50;98993.44;5030658;28;20411;-76
2023/08/08 01:34:58;;;;;;;2.10;0.70;;;;;;;20.19;65.41;99005.63;5028950;28;20029;-75
2023/08/08 01:37:32;;;;;;;3.45;1.88;;;;;;;20.04;64.99;98994.31;5016429;28;20037;-76
2023/08/08 01:40:00;;;;;;;1.42;0.88;;;;;;;20.15;64.45;99021.84;5012985;28;20049;-76
2023/08/08 01:42:27;;;;;;;3.20;0.63;;;;;;;20.20;64.05;99021.44;5013309;28;20033;-76
2023/08/08 01:44:53;;;;;;;1.73;1.20;;;;;;;20.14;64.63;99014.53;5031236;28;20480;-75
2023/08/08 01:47:19;;;;;;;0.73;0.70;;;;;;;20.02;65.20;99018.66;5028160;28;20053;-75
2023/08/08 01:49:44;;;;;;;1.25;1.02;;;;;;;19.88;65.71;99025.97;5018043;28;20479;-75
2023/08/08 01:52:09;;;;;;;1.60;1.20;;;;;;;19.92;66.11;99028.78;5022818;28;20029;-75
2023/08/08 01:54:35;;;;;;;1.73;1.00;;;;;;;19.73;66.55;99033.69;5028231;28;20030;-75
2023/08/08 01:57:00;;;;;;;2.30;1.02;;;;;;;19.64;66.92;99030.47;5026116;28;20472;-75
2023/08/08 01:59:26;;;;;;;3.65;0.90;;;;;;;19.60;66.77;99038.19;5021937;28;20025;-75
2023/08/08 02:01:51;;;;;;;2.97;1.27;;;;;;;19.53;67.05;99035.34;5026612;28;20491;-75
2023/08/08 02:04:17;;;;;;;1.80;0.98;;;;;;;19.53;67.53;99035.34;5021960;28;20115;-75
2023/08/08 02:06:42;;;;;;;4.32;0.98;;;;;;;19.43;67.81;99029.28;5021186;28;20033;-75
2023/08/08 02:09:08;;;;;;;1.45;0.88;;;;;;;19.45;68.72;99037.38;5014453;28;20026;-75
2023/08/08 02:11:33;;;;;;;2.78;0.90;;;;;;;19.38;69.89;99038.19;5033805;28;20036;-75
2023/08/08 02:13:59;;;;;;;1.80;1.20;;;;;;;19.28;70.45;99030.50;5033712;28;20029;-75
2023/08/08 02:16:24;;;;;;;6.93;1.55;;;;;;;19.28;70.74;99033.34;5022768;28;20097;-76
2023/08/08 02:18:49;;;;;;;4.25;1.33;;;;;;;19.15;71.79;99038.63;5025375;28;20037;-75
2023/08/08 02:21:15;;;;;;;9.77;1.30;;;;;;;19.04;72.24;99047.09;5031969;28;20033;-76
2023/08/08 02:23:40;;;;;;;6.30;1.20;;;;;;;19.07;72.16;99035.75;5032326;28;20112;-75
2023/08/08 02:26:06;;;;;;;1.58;1.27;;;;;;;19.00;73.02;99037.78;5033374;28;20053;-75
2023/08/08 02:28:31;;;;;;;3.65;1.00;;;;;;;19.01;73.26;99045.88;5033440;28;20545;-75
2023/08/08 02:30:57;;;;;;;3.03;1.05;;;;;;;18.99;74.17;99059.59;5033392;28;20485;-75
2023/08/08 02:33:23;;;;;;;2.92;1.15;;;;;;;18.93;74.46;99050.69;5032170;28;22085;-75
2023/08/08 02:35:48;;;;;;;2.97;1.13;;;;;;;18.83;75.32;99059.19;5031514;28;20479;-75
2023/08/08 02:38:14;;;;;;;1.40;1.10;;;;;;;18.64;77.05;99075.31;5031698;28;20033;-75
2023/08/08 02:40:39;;;;;;;1.92;1.33;;;;;;;18.52;78.61;99073.66;5031764;28;20499;-75
2023/08/08 02:43:05;;;;;;;2.03;1.35;;;;;;;18.56;79.19;99073.69;5033232;28;20101;-75
2023/08/08 02:45:30;;;;;;;3.03;1.48;;;;;;;18.56;79.35;99076.50;5032892;28;20495;-75
2023/08/08 02:47:56;;;;;;;3.83;1.63;;;;;;;18.69;79.11;99082.59;5031631;28;20029;-76
2023/08/08 02:50:21;;;;;;;2.15;1.52;;;;;;;18.75;78.90;99098.00;5030879;28;20117;-75
2023/08/08 02:52:47;;;;;;;1.08;1.05;;;;;;;18.66;79.71;99095.56;5032629;28;20041;-76
2023/08/08 02:55:12;;;;;;;2.63;1.40;;;;;;;18.67;80.01;99100.81;5042305;28;20029;-76
2023/08/08 02:57:39;;;;;;;5.50;1.55;;;;;;;18.65;80.83;99100.41;5032647;28;20041;-76
2023/08/08 03:00:08;;;;;;;2.40;1.40;;;;;;;18.58;81.05;99100.38;5048138;28;20033;-76
2023/08/08 03:02:33;;;;;;;8.30;1.63;;;;;;;18.45;82.54;99114.09;5032869;28;20035;-76
2023/08/08 03:04:59;;;;;;;1.88;1.00;;;;;;;18.46;82.84;99114.88;5032413;28;20029;-76
2023/08/08 03:07:25;;;;;;;2.55;1.55;;;;;;;18.36;84.00;99127.78;5043502;28;20034;-76
2023/08/08 03:09:50;;;;;;;2.33;0.98;;;;;;;18.31;84.53;99140.28;5032674;28;20021;-75
2023/08/08 03:12:15;;;;;;;2.03;1.13;;;;;;;18.38;83.90;99139.50;5032610;28;20025;-76
2023/08/08 03:14:41;;;;;;;2.03;1.10;;;;;;;18.29;84.98;99139.09;5032559;28;20025;-76
2023/08/08 03:17:06;;;;;;;2.38;1.20;;;;;;;18.31;84.81;99131.78;5046887;28;20116;-76
2023/08/08 03:19:32;;;;;;;3.92;1.38;;;;;;;18.45;84.49;99141.56;5030929;28;20111;-76
2023/08/08 03:21:57;;;;;;;3.20;1.27;;;;;;;18.47;83.73;99151.28;5032437;28;20079;-76
2023/08/08 03:24:23;;;;;;;2.00;1.63;;;;;;;18.31;84.34;99145.94;5029930;28;20029;-76
2023/08/08 03:26:48;;;;;;;2.15;1.27;;;;;;;18.38;84.50;99148.84;5019803;28;20037;-76
2023/08/08 03:29:13;;;;;;;1.85;1.52;;;;;;;18.31;84.98;99148.00;5011215;28;20114;-76
2023/08/08 03:31:39;;;;;;;3.65;1.52;;;;;;;18.34;85.25;99153.69;5012470;28;20506;-76
2023/08/08 03:34:04;;;;;;;4.20;1.30;;;;;;;18.31;87.99;99156.47;5019725;28;20412;-76
2023/08/08 03:36:30;;;;;;;1.58;1.30;;;;;;;18.15;90.65;99176.59;5031421;28;20104;-76
2023/08/08 03:38:56;;;;;;;3.35;1.70;;;;;;;18.03;92.95;99174.88;5029426;28;20029;-77
2023/08/08 03:41:21;;;;;;;2.47;1.40;;;;;;;17.87;93.04;99186.47;5031907;28;20046;-77
2023/08/08 03:43:46;;;;;;;2.55;1.50;;;;;;;17.75;94.79;99199.72;5047313;28;20025;-77
2023/08/08 03:46:12;;;;;;;4.93;1.63;;;;;;;17.54;96.67;99203.13;5030679;28;20028;-77
2023/08/08 03:48:38;;;;;;;4.05;1.55;;;;;;;17.51;99.31;99201.91;5046321;28;20025;-77
2023/08/08 03:51:04;;;;;;;2.15;1.90;;;;;;;17.61;100.00;99210.88;5027583;28;20068;-78
2023/08/08 03:53:29;;;;;;;2.30;1.70;;;;;;;17.63;100.00;99219.81;5029923;28;20021;-78
2023/08/08 03:55:55;;;;;;;2.95;1.80;;;;;;;17.64;100.00;99218.59;5030506;28;20018;-78
2023/08/08 03:58:21;;;;;;;2.38;2.00;;;;;;;17.50;100.00;99203.13;5029206;28;20021;-79
2023/08/08 04:00:46;;;;;;;3.60;2.17;;;;;;;17.50;100.00;99214.44;5022248;28;20025;-79
2023/08/08 04:03:14;;;;;;;3.33;1.90;;;;;;;17.43;100.00;99228.47;5031407;28;20033;-79
2023/08/08 04:05:40;;;;;;;2.47;2.28;;;;;;;17.59;100.00;99247.22;5030511;28;20048;-74
2023/08/08 04:08:06;;;;;;;2.97;1.60;;;;;;;17.56;100.00;99242.34;5029352;28;20274;-75
2023/08/08 04:10:31;;;;;;;2.22;2.00;;;;;;;17.65;100.00;99251.31;5028770;28;20030;-76
2023/08/08 04:12:57;;;;;;;6.57;2.22;;;;;;;17.77;100.00;99241.72;5030194;28;20184;-76
2023/08/08 04:15:22;;;;;;;7.90;2.28;;;;;;;17.76;100.00;99238.09;5030389;28;20033;-72
2023/08/08 04:17:48;;;;;;;2.55;1.95;;;;;;;17.75;100.00;99242.13;5016037;28;20041;-69
2023/08/08 04:20:14;;;;;;;5.97;2.20;;;;;;;17.51;100.00;99233.03;5043825;28;20029;-71
2023/08/08 04:22:39;;;;;;;4.47;2.08;;;;;;;17.52;100.00;99231.81;5027865;28;20021;-72
2023/08/08 04:25:06;;;;;;;3.92;2.00;;;;;;;17.57;100.00;99241.97;5030468;28;20032;-72
2023/08/08 04:27:31;;;;;;;3.50;2.53;;;;;;;17.37;100.00;99235.66;5027051;28;20026;-73
2023/08/08 04:29:57;;;;;;;5.22;2.15;;;;;;;17.36;100.00;99234.88;5058372;28;20078;-71
2023/08/08 04:32:22;;;;;;;4.15;2.03;;;;;;;17.31;100.00;99228.75;5030745;28;20368;-74
2023/08/08 04:34:48;;;;;;;3.58;3.13;;;;;;;17.18;100.00;99225.38;5028335;28;20025;-73
2023/08/08 04:37:13;;;;;;;4.57;2.50;;;;;;;17.10;100.00;99230.13;5031207;28;20451;-73
2023/08/08 04:39:38;;;;;;;4.05;2.28;;;;;;;17.20;100.00;99228.66;5027748;28;20455;-73
2023/08/08 04:42:04;;;;;;;3.75;2.50;;;;;;;17.29;100.00;99245.28;5028841;28;20456;-73
2023/08/08 04:44:30;;;;;;;6.35;2.95;;;;;;;17.41;100.00;99256.31;5022703;28;20528;-75
2023/08/08 04:46:55;;;;;;;4.45;2.30;;;;;;;17.38;100.00;99279.72;5024127;28;20099;-75
2023/08/08 04:49:21;;;;;;;6.43;2.63;;;;;;;17.54;100.00;99285.97;5029999;28;20025;-76
2023/08/08 04:51:46;;;;;;;5.03;2.78;;;;;;;17.51;100.00;99292.38;5024668;28;20025;-75
2023/08/08 04:54:12;;;;;;;2.05;1.85;;;;;;;17.57;100.00;99287.19;5030613;28;20029;-75
2023/08/08 04:56:37;;;;;;;3.38;2.42;;;;;;;17.42;99.53;99293.88;5030851;28;20044;-74
2023/08/08 04:59:03;;;;;;;4.20;2.45;;;;;;;17.17;97.82;99292.38;5031041;28;20087;-74
2023/08/08 05:01:28;;;;;;;3.67;2.65;;;;;;;17.21;97.56;99298.88;5029670;28;20033;-75
2023/08/08 05:03:54;;;;;;;5.25;2.30;;;;;;;17.12;98.85;99312.50;5028537;28;20033;-76
2023/08/08 05:06:19;;;;;;;5.53;2.15;;;;;;;17.07;98.46;99318.50;5044400;28;20047;-76
2023/08/08 05:08:45;;;;;;;3.10;2.63;;;;;;;17.06;98.50;99319.69;5030778;28;20241;-76
2023/08/08 05:11:10;;;;;;;3.22;2.92;;;;;;;17.03;98.36;99329.75;5030974;28;20032;-76
2023/08/08 05:13:36;;;;;;;4.20;2.55;;;;;;;17.06;99.38;99331.78;5030858;28;20412;-77
2023/08/08 05:16:01;;;;;;;3.33;1.98;;;;;;;17.08;98.74;99332.25;5033556;28;20018;-77
2023/08/08 05:18:26;;;;;;;3.65;2.53;;;;;;;17.18;98.79;99342.06;5034809;28;20017;-77
2023/08/08 05:20:52;;;;;;;3.13;2.78;;;;;;;17.21;98.75;99351.78;5033497;28;20032;-77
2023/08/08 05:23:17;;;;;;;6.28;3.13;;;;;;;17.28;98.78;99348.25;5026672;28;20030;-73
2023/08/08 05:25:43;;;;;;;2.85;2.45;;;;;;;17.23;98.31;99350.19;5026464;28;20032;-79
2023/08/08 05:28:08;;;;;;;5.15;2.78;;;;;;;17.49;97.03;99365.44;5024907;28;20606;-76
2023/08/08 05:30:34;;;;;;;3.20;2.25;;;;;;;17.58;95.54;99359.53;5018457;28;20034;-78
2023/08/08 05:32:59;;;;;;;4.63;2.60;;;;;;;17.84;94.37;99366.28;5017943;28;20030;-77
2023/08/08 05:35:25;;;;;;;3.85;2.80;;;;;;;17.73;94.25;99368.16;5016097;28;20021;-76
2023/08/08 05:37:50;;;;;;;4.32;2.38;;;;;;;17.94;93.43;99376.06;5017659;28;20097;-76
2023/08/08 05:40:16;;;;;;;2.60;2.40;;;;;;;17.92;92.23;99367.16;5015944;28;20041;-76
2023/08/08 05:42:41;;;;;;;4.30;2.63;;;;;;;17.88;91.82;99374.81;5023978;28;20040;-75
2023/08/08 05:45:08;;;;;;;2.58;2.38;;;;;;;17.52;92.13;99380.84;5014885;28;20036;-74
2023/08/08 05:47:33;;;;;;;3.53;2.97;;;;;;;17.48;92.73;99380.00;5016303;28;20045;-74
2023/08/08 05:49:59;;;;;;;4.60;2.92;;;;;;;17.68;91.56;99386.28;5011880;28;20029;-73
2023/08/08 05:52:24;;;;;;;6.40;2.50;;;;;;;17.77;90.82;99372.66;5017814;28;20547;-75
2023/08/08 05:54:49;;;;;;;5.88;2.38;;;;;;;17.85;90.70;99369.91;5029893;28;20018;-78
2023/08/08 05:57:15;;;;;;;8.85;3.17;;;;;;;17.95;91.27;99367.22;5034743;28;20059;-73
2023/08/08 05:59:40;;;;;;;3.47;2.95;;;;;;;18.22;91.30;99380.41;5026837;28;20025;-74
2023/08/08 06:02:06;;;;;;;3.90;3.40;;;;;;;18.45;89.78;99385.06;5029579;28;20397;-73
2023/08/08 06:04:32;;;;;;;6.97;3.75;;;;;;;18.51;89.67;99384.31;5030509;28;20036;-74
2023/08/08 06:06:57;;;;;;;5.28;2.95;;;;;;;18.51;89.63;99390.00;5026893;28;20488;-74
2023/08/08 06:09:22;;;;;;;5.38;3.35;;;;;;;18.58;89.30;99389.25;5028886;28;20029;-74
2023/08/08 06:11:48;;;;;;;2.53;2.33;;;;;;;18.61;89.15;99388.47;5027667;28;20488;-73
2023/08/08 06:14:13;;;;;;;4.45;2.78;;;;;;;18.67;88.93;99386.88;5031483;28;20028;-73
2023/08/08 06:16:39;;;;;;;3.88;2.63;;;;;;;18.79;88.24;99393.44;5033735;28;20518;-73
2023/08/08 06:19:05;;;;;;;4.88;2.90;;;;;;;18.71;87.77;99388.97;5031639;28;20025;-73
2023/08/08 06:21:31;;;;;;;2.97;2.78;;;;;;;18.69;87.76;99388.50;5033317;28;20029;-73
2023/08/08 06:23:56;;;;;;;2.88;2.67;;;;;;;18.67;88.17;99384.06;5033887;28;20027;-73
2023/08/08 06:26:22;;;;;;;3.70;3.22;;;;;;;18.76;87.63;99391.41;5048304;28;20037;-73
2023/08/08 06:28:48;;;;;;;4.82;3.20;;;;;;;18.90;87.98;99394.34;5032568;28;20033;-73
2023/08/08 06:31:14;;;;;;;4.18;2.38;;;;;;;18.86;87.07;99395.53;5033220;28;20029;-73
2023/08/08 06:33:39;;;;;;;3.17;2.85;;;;;;;18.86;86.71;99390.69;5031603;28;20029;-73
2023/08/08 06:36:05;;;;;;;3.30;2.80;;;;;;;18.84;88.13;99383.78;5031694;28;20025;-74
2023/08/08 06:38:33;;;;;;;3.53;3.00;;;;;;;19.12;89.07;99391.69;5031797;28;20029;-73
2023/08/08 06:41:00;;;;;;;3.53;3.22;;;;;;;19.17;88.24;99391.31;5031856;28;20041;-73
2023/08/08 06:43:25;;;;;;;3.50;3.20;;;;;;;19.20;89.46;99384.03;5024225;28;20079;-73
2023/08/08 06:45:51;;;;;;;4.10;3.67;;;;;;;19.24;86.84;99376.34;5029334;28;20100;-74
2023/08/08 06:48:17;;;;;;;5.88;2.95;;;;;;;19.48;86.56;99374.88;5026800;28;20065;-74
2023/08/08 06:50:42;;;;;;;9.30;2.85;;;;;;;19.23;83.59;99377.56;5032628;28;20081;-74
2023/08/08 06:53:08;;;;;;;6.25;2.72;;;;;;;19.37;84.10;99376.84;5032666;28;20033;-75
2023/08/08 06:55:33;;;;;;;4.20;2.88;;;;;;;19.34;82.66;99381.28;5032592;28;20033;-78
2023/08/08 06:57:59;;;;;;;2.88;2.25;;;;;;;19.37;81.41;99388.19;5030887;28;20120;-75
2023/08/08 07:00:27;;;;;;;4.50;2.92;;;;;;;19.60;81.19;99381.41;5032459;28;20496;-76
2023/08/08 07:02:52;;;;;;;4.10;2.30;;;;;;;19.66;79.93;99388.28;5031392;28;20116;-75
2023/08/08 07:05:18;;;;;;;4.07;2.17;;;;;;;19.50;79.48;99386.63;5031803;28;20125;-74
2023/08/08 07:07:44;;;;;;;2.63;2.42;;;;;;;19.39;80.87;99388.59;5028942;28;20029;-77
2023/08/08 07:10:11;;;;;;;4.40;2.83;;;;;;;19.39;81.63;99388.59;5032029;28;20410;-76
2023/08/08 07:12:37;;;;;;;3.05;2.58;;;;;;;19.56;81.10;99401.22;5032287;28;20095;-77
2023/08/08 07:15:03;;;;;;;3.20;2.90;;;;;;;19.57;79.57;99402.06;5031082;28;20033;-76
2023/08/08 07:17:29;;;;;;;4.38;3.33;;;;;;;19.38;77.94;99401.16;5032143;28;20121;-78
2023/08/08 07:19:54;;;;;;;4.57;3.00;;;;;;;19.48;78.90;99403.22;5032534;28;20022;-77
2023/08/08 07:22:20;;;;;;;4.78;2.88;;;;;;;19.27;75.45;99417.28;5031333;28;20029;-75
2023/08/08 07:24:46;;;;;;;4.45;3.30;;;;;;;19.16;76.80;99411.56;5031893;28;20674;-78
2023/08/08 07:27:11;;;;;;;3.38;2.83;;;;;;;19.11;75.79;99404.25;5030163;28;20030;-73
2023/08/08 07:29:36;;;;;;;3.45;3.08;;;;;;;19.07;76.37;99392.06;5031984;28;20033;-75
2023/08/08 07:32:05;;;;;;;3.17;2.88;;;;;;;18.87;75.17;99400.81;5025633;28;20040;-74
2023/08/08 07:34:32;;;;;;;8.15;3.03;;;;;;;19.06;76.75;99415.94;5027361;28;20084;-74
2023/08/08 07:36:58;;;;;;;3.55;2.35;;;;;;;19.22;76.50;99426.97;5024693;28;20116;-74
2023/08/08 07:39:23;;;;;;;4.00;3.15;;;;;;;19.21;77.20;99417.66;5018192;28;20053;-74
2023/08/08 07:41:49;;;;;;;10.25;6.15;;;;;;;19.27;75.37;99417.28;5022138;28;20099;-73
2023/08/08 07:44:15;;;;;;;13.07;10.65;;;;;;;19.19;73.86;99428.59;5037778;28;20033;-76
2023/08/08 07:46:41;;;;;;;5.55;3.97;;;;;;;19.34;75.58;99431.50;5030612;28;20029;-74
2023/08/08 07:49:06;;;;;;;7.88;3.85;;;;;;;19.25;74.72;99425.38;5025869;28;20573;-73
2023/08/08 07:51:32;;;;;;;4.40;3.15;;;;;;;19.17;73.88;99418.84;5039235;28;20105;-72
2023/08/08 07:53:59;;;;;;;5.35;2.92;;;;;;;19.30;73.59;99436.34;5031932;28;20040;-74
2023/08/08 07:56:24;;;;;;;5.40;2.17;;;;;;;19.36;71.19;99440.44;5031043;28;20083;-73
2023/08/08 07:58:50;;;;;;;6.72;3.10;;;;;;;19.31;70.37;99429.47;5030027;28;20459;-74
2023/08/08 08:01:16;;;;;;;9.57;5.03;;;;;;;19.48;72.06;99433.59;5030861;28;20025;-73
2023/08/08 08:03:42;;;;;;;10.27;2.60;;;;;;;19.64;71.26;99436.13;5027596;28;20056;-74
2023/08/08 08:06:07;;;;;;;7.22;3.50;;;;;;;19.64;70.90;99433.28;5025154;28;20496;-75
2023/08/08 08:08:33;;;;;;;6.28;2.78;;;;;;;19.67;70.66;99441.00;5042949;28;20496;-74
2023/08/08 08:10:58;;;;;;;4.90;2.53;;;;;;;19.74;69.26;99437.41;5029136;28;20033;-76
2023/08/08 08:13:24;;;;;;;3.53;2.58;;;;;;;19.86;69.01;99437.03;5028670;28;20055;-75
2023/08/08 08:15:49;;;;;;;6.47;3.30;;;;;;;20.09;70.39;99440.78;5031237;28;20108;-75
2023/08/08 08:18:16;;;;;;;26.15;12.50;;;;;;;20.15;68.90;99431.47;5031209;28;20040;-75
2023/08/08 08:20:45;;;;;;;12.45;5.95;;;;;;;20.29;66.75;99438.41;5029624;28;20500;-75
2023/08/08 08:23:10;;;;;;;19.50;10.13;;;;;;;20.79;67.40;99416.94;5030088;28;20025;-75
2023/08/08 08:25:36;;;;;;;28.98;12.27;;;;;;;21.07;63.82;99407.59;5031213;28;20025;-75
2023/08/08 08:28:01;;;;;;;15.70;6.47;;;;;;;21.25;64.39;99409.63;5029495;28;20036;-75
2023/08/08 08:30:27;;;;;;;29.45;14.73;;;;;;;21.76;65.16;99403.78;5030342;28;20021;-75
2023/08/08 08:32:53;;;;;;;9.45;3.97;;;;;;;21.98;62.43;99411.00;5028403;28;20408;-74
2023/08/08 08:35:19;;;;;;;6.38;2.95;;;;;;;21.93;59.99;99413.47;5030907;28;20030;-74
2023/08/08 08:37:44;;;;;;;5.03;2.92;;;;;;;22.05;61.92;99415.00;5029487;28;20025;-74
2023/08/08 08:40:10;;;;;;;4.80;3.50;;;;;;;21.99;58.42;99409.75;5029997;28;20052;-74
2023/08/08 08:42:39;;;;;;;3.78;2.60;;;;;;;22.28;58.65;99406.72;5029133;28;20407;-74
2023/08/08 08:45:05;;;;;;;6.15;2.38;;;;;;;21.85;56.81;99404.16;5028600;28;20026;-74
2023/08/08 08:47:32;;;;;;;4.20;2.75;;;;;;;22.00;56.22;99404.84;5024445;28;20021;-74
2023/08/08 08:50:00;;;;;;;2.40;1.88;;;;;;;22.21;55.59;99406.78;5030706;28;20028;-74
2023/08/08 08:52:25;;;;;;;3.58;1.70;;;;;;;22.10;53.72;99403.19;5030788;28;20056;-74
2023/08/08 08:54:51;;;;;;;5.70;2.25;;;;;;;22.40;55.21;99401.78;5030394;28;20072;-74
2023/08/08 08:57:17;;;;;;;4.45;2.67;;;;;;;22.60;52.33;99387.00;5024665;28;20457;-73
2023/08/08 08:59:44;;;;;;;3.42;2.17;;;;;;;22.77;51.71;99403.13;5029347;28;20508;-73
2023/08/08 09:02:10;;;;;;;3.10;2.67;;;;;;;22.78;51.61;99404.75;5030760;28;20029;-74
2023/08/08 09:04:37;;;;;;;3.65;2.38;;;;;;;22.86;50.08;99408.34;5031004;28;20029;-73
2023/08/08 09:07:06;;;;;;;7.78;2.50;;;;;;;22.68;50.50;99406.47;5045731;28;20034;-74
2023/08/08 09:09:32;;;;;;;2.47;2.00;;;;;;;22.49;50.58;99401.31;5030749;28;20017;-73
2023/08/08 09:11:57;;;;;;;4.47;2.60;;;;;;;22.50;51.51;99400.09;5030839;28;20024;-73
2023/08/08 09:14:25;;;;;;;2.92;1.50;;;;;;;22.75;50.65;99402.75;5029345;28;20447;-73
2023/08/08 09:16:53;;;;;;;4.00;2.10;;;;;;;22.53;49.71;99405.75;5030246;28;20033;-73
2023/08/08 09:19:19;;;;;;;12.70;2.45;;;;;;;22.74;48.34;99415.38;5030621;28;20087;-74
2023/08/08 09:21:45;;;;;;;6.97;1.80;;;;;;;22.69;50.23;99407.28;5030556;28;20025;-73
2023/08/08 09:24:10;;;;;;;3.90;1.65;;;;;;;22.60;49.63;99398.41;5029491;28;20117;-73
2023/08/08 09:26:36;;;;;;;2.20;1.52;;;;;;;22.88;48.39;99402.22;5030310;28;20108;-75
2023/08/08 09:29:03;;;;;;;3.63;2.00;;;;;;;23.07;47.17;99393.09;5024051;28;20639;-74
2023/08/08 09:31:30;;;;;;;2.70;1.80;;;;;;;23.44;47.37;99399.22;5029927;28;20025;-75
2023/08/08 09:34:00;;;;;;;1.63;1.52;;;;;;;23.29;45.55;99404.31;5030157;28;20079;-75
2023/08/08 09:36:25;;;;;;;;;;;;;;;23.36;47.01;99404.22;5024493;28;20492;-75
2023/08/08 09:38:53;;;;;;;1.83;1.60;;;;;;;23.54;46.69;99403.22;5021167;28;19923;-75
2023/08/08 09:41:20;;;;;;;2.33;1.60;;;;;;;23.42;47.93;99393.16;5027721;28;20049;-75
2023/08/08 09:43:47;;;;;;;7.13;2.42;;;;;;;23.74;45.69;99389.09;5028111;28;20385;-75
2023/08/08 09:46:15;;;;;;;1.75;1.55;;;;;;;23.77;45.98;99381.69;5027004;28;20033;-74
2023/08/08 09:48:41;;;;;;;3.20;1.40;;;;;;;23.57;43.83;99385.22;5020758;28;20025;-78
2023/08/08 09:51:07;;;;;;;1.52;1.42;;;;;;;23.79;46.42;99376.41;5020069;28;20056;-76
2023/08/08 09:53:34;;;;;;;1.77;1.25;;;;;;;23.94;45.91;99374.13;5022059;28;20504;-80
2023/08/08 09:56:03;;;;;;;2.20;1.10;;;;;;;24.06;44.89;99381.34;5022546;28;20034;-76
2023/08/08 09:58:29;;;;;;;2.25;1.30;;;;;;;24.02;42.78;99381.38;5014959;28;20029;-75
2023/08/08 10:00:54;;;;;;;1.10;1.00;;;;;;;23.70;43.64;99377.72;5019600;28;20117;-74
2023/08/08 10:03:20;;;;;;;2.70;2.20;;;;;;;23.89;44.13;99377.47;5026995;28;20519;-77
2023/08/08 10:05:45;;;;;;;5.50;1.90;;;;;;;24.46;42.74;99380.75;5029395;28;20523;-75
2023/08/08 10:08:15;;;;;;;2.03;1.83;;;;;;;24.18;40.22;99383.63;5021391;28;20017;-75
2023/08/08 10:10:41;;;;;;;1.63;0.90;;;;;;;24.27;41.65;99385.94;5043065;28;20373;-75
2023/08/08 10:13:07;;;;;;;5.45;1.63;;;;;;;24.05;41.45;99385.44;5019019;28;20444;-75
2023/08/08 10:15:37;;;;;;;1.90;1.30;;;;;;;24.70;42.49;99384.44;5017705;28;20040;-75
2023/08/08 10:18:02;;;;;;;;;;;;;;;24.83;41.58;99383.84;5023529;28;20035;-75
2023/08/08 10:20:32;;;;;;;5.63;1.70;;;;;;;24.99;40.15;99378.25;5021943;28;20007;-75
2023/08/08 10:22:57;;;;;;;1.42;1.30;;;;;;;24.77;40.14;99390.06;5018266;28;20029;-75
2023/08/08 10:25:27;;;;;;;1.55;1.45;;;;;;;25.01;40.00;99392.09;5026119;28;20104;-76
2023/08/08 10:28:04;;;;;;;4.53;1.30;;;;;;;24.63;39.78;99396.00;5022920;28;20018;-75
2023/08/08 10:30:29;;;;;;;2.80;1.77;;;;;;;24.90;38.12;99384.50;5044325;28;20041;-74
2023/08/08 10:32:59;;;;;;;3.53;1.45;;;;;;;25.04;38.12;99377.72;5026447;28;20025;-74
2023/08/08 10:35:36;;;;;;;2.85;1.65;;;;;;;24.97;38.23;99386.44;5019901;28;20575;-74
2023/08/08 10:38:09;;;;;;;2.03;1.30;;;;;;;25.34;39.07;99369.41;5020787;28;20487;-74
2023/08/08 10:40:36;;;;;;;3.58;1.70;;;;;;;25.32;38.64;99366.97;5023337;28;20128;-74
2023/08/08 10:43:11;;;;;;;2.15;1.35;;;;;;;25.16;38.17;99381.19;5019586;28;20025;-74
2023/08/08 10:45:36;;;;;;;3.60;1.60;;;;;;;25.40;38.59;99370.53;5019739;28;20084;-74
2023/08/08 10:48:08;;;;;;;6.13;2.67;;;;;;;25.49;36.64;99379.34;5015097;28;20034;-74
2023/08/08 10:50:39;;;;;;;4.03;1.70;;;;;;;25.73;34.77;99367.81;5020982;28;20538;-74
2023/08/08 10:53:10;;;;;;;2.65;1.52;;;;;;;25.50;33.32;99377.31;5037329;28;20033;-74
2023/08/08 10:55:36;;;;;;;4.63;1.58;;;;;;;25.81;33.11;99362.72;5014461;28;20186;-74
2023/08/08 10:58:19;;;;;;;1.20;1.10;;;;;;;25.70;33.17;99365.00;5022097;28;20022;-73
2023/08/08 11:00:44;;;;;;;2.53;1.20;;;;;;;25.83;33.51;99351.66;5028844;28;20408;-73
2023/08/08 11:03:10;;;;;;;1.38;1.27;;;;;;;25.95;32.74;99352.22;5024202;28;20025;-74
2023/08/08 11:05:37;;;;;;;3.72;2.08;;;;;;;26.05;31.77;99354.00;5024489;28;20052;-73
2023/08/08 11:08:04;;;;;;;2.58;1.25;;;;;;;25.98;33.00;99348.47;5031889;28;20159;-74
2023/08/08 11:10:35;;;;;;;3.17;1.30;;;;;;;26.19;34.55;99352.91;5031503;28;20482;-73
2023/08/08 11:13:04;;;;;;;1.20;1.08;;;;;;;26.25;33.33;99354.00;5036099;28;20027;-73
2023/08/08 11:15:32;;;;;;;1.38;1.27;;;;;;;26.54;33.90;99343.88;5024782;28;20068;-74
2023/08/08 11:17:59;;;;;;;4.05;1.00;;;;;;;26.08;34.29;99342.47;5028650;28;20490;-74
2023/08/08 11:20:28;;;;;;;3.67;1.40;;;;;;;26.43;33.26;99350.69;5022989;28;20116;-74
2023/08/08 11:22:55;;;;;;;11.63;2.30;;;;;;;26.00;34.07;99352.47;5016409;28;20030;-74
2023/08/08 11:25:22;;;;;;;2.10;0.82;;;;;;;25.77;34.09;99344.81;5024541;28;20045;-73
2023/08/08 11:27:51;;;;;;;3.08;1.73;;;;;;;25.86;33.16;99344.22;5015277;28;20038;-74